createdAt,value
2018-05-10T00:00:05.393Z,49.46
2018-05-10T00:01:08.692Z,49.47
2018-05-10T00:02:12.039Z,49.50
2018-05-10T00:03:15.370Z,49.52
2018-05-10T00:04:18.732Z,49.58
2018-05-10T00:05:22.047Z,49.62
2018-05-10T00:06:25.414Z,49.62
2018-05-10T00:07:28.867Z,49.62
2018-05-10T00:08:32.202Z,49.66
2018-05-10T00:09:35.556Z,49.67
2018-05-10T00:10:38.884Z,49.69
2018-05-10T00:11:42.206Z,49.67
2018-05-10T00:12:45.546Z,49.69
2018-05-10T00:13:48.876Z,49.69
2018-05-10T00:14:52.195Z,49.68
2018-05-10T00:15:55.532Z,49.70
2018-05-10T00:16:58.855Z,49.73
2018-05-10T00:18:02.186Z,49.74
2018-05-10T00:19:05.608Z,49.76
2018-05-10T00:20:08.921Z,49.76
2018-05-10T00:21:12.247Z,49.79
2018-05-10T00:22:15.558Z,49.81
2018-05-10T00:23:18.903Z,49.88
2018-05-10T00:24:22.237Z,49.85
2018-05-10T00:25:25.773Z,49.85
2018-05-10T00:26:29.112Z,49.88
2018-05-10T00:27:32.445Z,49.92
2018-05-10T00:28:35.791Z,49.90
2018-05-10T00:29:39.096Z,49.91
2018-05-10T00:30:42.429Z,49.93
2018-05-10T00:31:45.762Z,49.95
2018-05-10T00:32:49.200Z,49.96
2018-05-10T00:33:52.547Z,49.97
2018-05-10T00:34:55.921Z,50.04
2018-05-10T00:35:59.243Z,50.05
2018-05-10T00:37:02.567Z,50.08
2018-05-10T00:38:05.890Z,50.11
2018-05-10T00:39:09.236Z,50.14
2018-05-10T00:40:12.563Z,50.19
2018-05-10T00:41:15.905Z,50.22
2018-05-10T00:42:19.215Z,50.25
2018-05-10T00:43:22.543Z,50.31
2018-05-10T00:44:25.894Z,50.35
2018-05-10T00:45:29.232Z,50.44
2018-05-10T00:46:32.565Z,50.46
2018-05-10T00:47:35.895Z,50.51
2018-05-10T00:48:39.220Z,50.54
2018-05-10T00:49:42.575Z,50.52
2018-05-10T00:50:45.913Z,50.54
2018-05-10T00:51:49.238Z,50.57
2018-05-10T00:52:52.549Z,50.58
2018-05-10T00:53:55.883Z,50.56
2018-05-10T00:54:59.255Z,50.55
2018-05-10T00:56:02.547Z,50.50
2018-05-10T00:57:05.899Z,50.48
2018-05-10T00:58:09.225Z,50.42
2018-05-10T00:59:12.535Z,50.39
2018-05-10T01:00:15.877Z,50.36
2018-05-10T01:01:19.238Z,50.37
2018-05-10T01:02:22.550Z,50.38
2018-05-10T01:03:25.918Z,50.35
2018-05-10T01:04:29.238Z,50.32
2018-05-10T01:05:32.588Z,50.33
2018-05-10T01:06:35.929Z,50.30
2018-05-10T01:07:39.326Z,50.27
2018-05-10T01:08:42.656Z,50.25
2018-05-10T01:09:45.972Z,50.23
2018-05-10T01:10:49.319Z,50.23
2018-05-10T01:11:52.667Z,50.20
2018-05-10T01:12:56.003Z,50.19
2018-05-10T01:13:59.329Z,50.16
2018-05-10T01:15:02.647Z,50.16
2018-05-10T01:16:05.995Z,50.11
2018-05-10T01:17:09.329Z,50.08
2018-05-10T01:18:12.643Z,50.07
2018-05-10T01:19:16.003Z,50.04
2018-05-10T01:20:19.388Z,49.99
2018-05-10T01:21:22.766Z,50.00
2018-05-10T01:22:26.099Z,50.00
2018-05-10T01:23:29.441Z,50.03
2018-05-10T01:24:32.767Z,50.05
2018-05-10T01:25:36.365Z,50.09
2018-05-10T01:26:44.927Z,50.19
2018-05-10T01:27:53.596Z,50.24
2018-05-10T01:29:02.171Z,50.29
2018-05-10T01:30:11.016Z,50.36
2018-05-10T01:31:14.312Z,50.38
2018-05-10T01:32:17.670Z,50.41
2018-05-10T01:33:21.018Z,50.44
2018-05-10T01:34:24.346Z,50.50
2018-05-10T01:35:39.696Z,50.56
2018-05-10T01:36:43.003Z,50.61
2018-05-10T01:37:46.359Z,50.62
2018-05-10T01:38:49.696Z,50.58
2018-05-10T01:39:53.018Z,50.56
2018-05-10T01:40:56.354Z,50.48
2018-05-10T01:41:59.667Z,50.42
2018-05-10T01:43:03.023Z,50.30
2018-05-10T01:44:06.356Z,50.22
2018-05-10T01:45:09.670Z,50.18
2018-05-10T01:46:13.003Z,50.13
2018-05-10T01:47:16.355Z,50.10
2018-05-10T01:48:19.712Z,50.03
2018-05-10T01:49:23.042Z,50.01
2018-05-10T01:50:26.399Z,49.99
2018-05-10T01:51:29.744Z,49.98
2018-05-10T01:52:33.087Z,50.00
2018-05-10T01:53:36.443Z,50.05
2018-05-10T01:54:39.773Z,50.05
2018-05-10T01:55:43.100Z,50.07
2018-05-10T01:56:46.422Z,50.08
2018-05-10T01:57:49.769Z,50.09
2018-05-10T01:58:53.132Z,50.11
2018-05-10T01:59:56.466Z,50.10
2018-05-10T02:00:59.785Z,50.07
2018-05-10T02:02:03.120Z,50.09
2018-05-10T02:03:06.451Z,50.10
2018-05-10T02:04:09.819Z,50.11
2018-05-10T02:05:13.150Z,50.16
2018-05-10T02:06:16.485Z,50.17
2018-05-10T02:07:19.799Z,50.21
2018-05-10T02:08:23.235Z,50.25
2018-05-10T02:09:26.579Z,50.28
2018-05-10T02:10:29.969Z,50.33
2018-05-10T02:11:33.296Z,50.36
2018-05-10T02:12:36.623Z,50.41
2018-05-10T02:13:39.971Z,50.47
2018-05-10T02:14:43.347Z,50.52
2018-05-10T02:15:46.669Z,50.51
2018-05-10T02:16:50.331Z,50.42
2018-05-10T02:17:53.639Z,50.38
2018-05-10T02:18:56.962Z,50.28
2018-05-10T02:20:00.330Z,50.21
2018-05-10T02:21:03.659Z,50.18
2018-05-10T02:22:07.000Z,50.08
2018-05-10T02:23:10.341Z,49.95
2018-05-10T02:24:13.675Z,49.79
2018-05-10T02:25:17.075Z,49.73
2018-05-10T02:26:20.419Z,49.62
2018-05-10T02:27:23.744Z,49.58
2018-05-10T02:28:27.080Z,49.50
2018-05-10T02:29:30.402Z,49.40
2018-05-10T02:30:33.751Z,49.34
2018-05-10T02:31:37.087Z,49.32
2018-05-10T02:32:40.422Z,49.30
2018-05-10T02:33:43.749Z,49.28
2018-05-10T02:34:47.081Z,49.25
2018-05-10T02:35:50.413Z,49.27
2018-05-10T02:36:53.743Z,49.30
2018-05-10T02:37:57.107Z,49.32
2018-05-10T02:39:00.427Z,49.38
2018-05-10T02:40:03.792Z,49.42
2018-05-10T02:41:07.150Z,49.43
2018-05-10T02:42:10.499Z,49.49
2018-05-10T02:43:13.814Z,49.54
2018-05-10T02:44:17.158Z,49.57
2018-05-10T02:45:20.480Z,49.61
2018-05-10T02:46:23.828Z,49.66
2018-05-10T02:47:27.168Z,49.71
2018-05-10T02:48:30.787Z,49.79
2018-05-10T02:49:34.184Z,49.83
2018-05-10T02:50:37.499Z,49.92
2018-05-10T02:51:40.957Z,49.98
2018-05-10T02:52:44.263Z,50.04
2018-05-10T02:53:47.598Z,50.10
2018-05-10T02:54:50.906Z,50.16
2018-05-10T02:55:54.247Z,50.21
2018-05-10T02:56:57.615Z,50.26
2018-05-10T02:58:00.951Z,50.31
2018-05-10T02:59:04.290Z,50.39
2018-05-10T03:00:07.692Z,50.47
2018-05-10T03:01:11.005Z,50.56
2018-05-10T03:02:14.375Z,50.67
2018-05-10T03:03:17.707Z,50.80
2018-05-10T03:04:21.034Z,50.93
2018-05-10T03:05:24.379Z,51.07
2018-05-10T03:06:27.695Z,51.19
2018-05-10T03:07:31.046Z,51.31
2018-05-10T03:08:34.699Z,51.43
2018-05-10T03:09:38.048Z,51.53
2018-05-10T03:10:41.378Z,51.62
2018-05-10T03:11:44.712Z,51.70
2018-05-10T03:12:48.079Z,51.80
2018-05-10T03:13:51.386Z,51.87
2018-05-10T03:14:54.706Z,51.96
2018-05-10T03:15:58.049Z,52.04
2018-05-10T03:17:01.375Z,52.13
2018-05-10T03:18:04.722Z,52.21
2018-05-10T03:19:08.040Z,52.29
2018-05-10T03:20:11.359Z,52.39
2018-05-10T03:21:14.673Z,52.49
2018-05-10T03:22:18.000Z,52.60
2018-05-10T03:23:21.351Z,52.68
2018-05-10T03:24:24.666Z,52.76
2018-05-10T03:25:27.986Z,52.83
2018-05-10T03:26:31.471Z,52.91
2018-05-10T03:27:34.810Z,52.98
2018-05-10T03:28:38.161Z,53.05
2018-05-10T03:29:41.492Z,53.15
2018-05-10T03:30:44.812Z,53.23
2018-05-10T03:31:48.127Z,53.30
2018-05-10T03:32:51.455Z,53.38
2018-05-10T03:33:54.801Z,53.47
2018-05-10T03:34:58.178Z,53.52
2018-05-10T03:36:01.502Z,53.58
2018-05-10T03:37:04.845Z,53.64
2018-05-10T03:38:08.171Z,53.72
2018-05-10T03:39:11.528Z,53.79
2018-05-10T03:40:14.859Z,53.87
2018-05-10T03:41:18.170Z,53.94
2018-05-10T03:42:21.519Z,53.98
2018-05-10T03:43:24.858Z,54.04
2018-05-10T03:44:28.207Z,54.10
2018-05-10T03:45:31.539Z,54.17
2018-05-10T03:46:34.851Z,54.19
2018-05-10T03:47:38.194Z,54.23
2018-05-10T03:48:41.523Z,54.27
2018-05-10T03:49:44.868Z,54.30
2018-05-10T03:50:48.199Z,54.33
2018-05-10T03:51:51.551Z,54.35
2018-05-10T03:52:54.858Z,54.38
2018-05-10T03:53:58.178Z,54.41
2018-05-10T03:55:01.531Z,54.43
2018-05-10T03:56:04.843Z,54.42
2018-05-10T03:57:08.165Z,54.46
2018-05-10T03:58:11.482Z,54.50
2018-05-10T03:59:14.795Z,54.54
2018-05-10T04:00:18.186Z,54.57
2018-05-10T04:01:21.526Z,54.61
2018-05-10T04:02:36.550Z,54.66
2018-05-10T04:05:29.448Z,54.93
2018-05-10T04:06:44.586Z,55.00
2018-05-10T04:07:59.783Z,55.06
2018-05-10T04:09:16.001Z,55.14
2018-05-10T04:10:31.099Z,55.20
2018-05-10T04:11:34.434Z,55.24
2018-05-10T04:12:37.779Z,55.24
2018-05-10T04:13:41.104Z,55.24
2018-05-10T04:14:44.503Z,55.25
2018-05-10T04:15:47.851Z,55.25
2018-05-10T04:16:51.202Z,55.27
2018-05-10T04:17:54.514Z,55.27
2018-05-10T04:18:57.836Z,55.30
2018-05-10T04:20:01.163Z,55.31
2018-05-10T04:21:04.515Z,55.32
2018-05-10T04:22:07.839Z,55.36
2018-05-10T04:23:11.187Z,55.38
2018-05-10T04:24:14.546Z,55.39
2018-05-10T04:25:17.915Z,55.41
2018-05-10T04:26:21.262Z,55.44
2018-05-10T04:27:24.584Z,55.48
2018-05-10T04:28:27.898Z,55.52
2018-05-10T04:29:31.242Z,55.55
2018-05-10T04:30:34.581Z,55.60
2018-05-10T04:31:37.947Z,55.65
2018-05-10T04:32:41.267Z,55.67
2018-05-10T04:33:44.585Z,55.70
2018-05-10T04:34:47.906Z,55.72
2018-05-10T04:35:51.232Z,55.76
2018-05-10T04:36:54.590Z,55.79
2018-05-10T04:37:57.909Z,55.82
2018-05-10T04:39:01.234Z,55.85
2018-05-10T04:40:04.566Z,55.85
2018-05-10T04:41:07.891Z,55.85
2018-05-10T04:42:11.252Z,55.82
2018-05-10T04:43:14.583Z,55.78
2018-05-10T04:44:17.954Z,55.69
2018-05-10T04:45:21.258Z,55.63
2018-05-10T04:46:24.609Z,55.55
2018-05-10T04:47:27.935Z,55.50
2018-05-10T04:48:31.275Z,55.38
2018-05-10T04:49:35.203Z,55.32
2018-05-10T04:50:38.534Z,55.21
2018-05-10T04:51:41.866Z,55.12
2018-05-10T04:52:45.224Z,55.03
2018-05-10T04:53:48.806Z,54.96
2018-05-10T04:54:52.241Z,54.87
2018-05-10T04:55:55.493Z,54.74
2018-05-10T04:56:58.798Z,54.68
2018-05-10T04:58:02.155Z,54.58
2018-05-10T04:59:05.470Z,54.48
2018-05-10T05:00:08.792Z,54.43
2018-05-10T05:01:12.106Z,54.42
2018-05-10T05:02:15.452Z,54.30
2018-05-10T05:03:18.875Z,54.23
2018-05-10T05:04:22.158Z,54.17
2018-05-10T05:05:25.471Z,54.12
2018-05-10T05:06:28.783Z,54.05
2018-05-10T05:07:32.107Z,54.02
2018-05-10T05:08:35.449Z,53.97
2018-05-10T05:09:39.294Z,53.98
2018-05-10T05:10:42.615Z,53.92
2018-05-10T05:11:45.956Z,53.87
2018-05-10T05:12:49.398Z,53.86
2018-05-10T05:13:52.735Z,53.83
2018-05-10T05:14:56.051Z,53.78
2018-05-10T05:15:59.386Z,53.73
2018-05-10T05:17:02.711Z,53.66
2018-05-10T05:18:06.032Z,53.60
2018-05-10T05:19:09.395Z,53.47
2018-05-10T05:20:12.755Z,53.34
2018-05-10T05:21:16.078Z,53.27
2018-05-10T05:22:19.507Z,53.23
2018-05-10T05:23:22.811Z,53.13
2018-05-10T05:24:26.160Z,52.95
2018-05-10T05:25:29.489Z,52.82
2018-05-10T05:26:32.815Z,52.60
2018-05-10T05:27:36.141Z,52.36
2018-05-10T05:28:39.454Z,52.22
2018-05-10T05:29:42.801Z,52.03
2018-05-10T05:30:46.128Z,51.75
2018-05-10T05:31:49.451Z,51.44
2018-05-10T05:32:52.762Z,51.23
2018-05-10T05:33:56.100Z,51.04
2018-05-10T05:34:59.432Z,50.80
2018-05-10T05:36:02.746Z,50.44
2018-05-10T05:37:06.137Z,50.21
2018-05-10T05:38:09.458Z,49.88
2018-05-10T05:39:12.778Z,49.70
2018-05-10T05:40:16.107Z,49.53
2018-05-10T05:41:19.506Z,49.38
2018-05-10T05:42:22.735Z,49.21
2018-05-10T05:43:26.074Z,49.07
2018-05-10T05:44:29.392Z,48.95
2018-05-10T05:45:32.739Z,48.72
2018-05-10T05:46:36.064Z,48.53
2018-05-10T05:47:39.398Z,48.39
2018-05-10T05:48:42.734Z,48.28
2018-05-10T05:49:46.075Z,48.10
2018-05-10T05:50:49.407Z,47.96
2018-05-10T05:51:52.751Z,47.85
2018-05-10T05:52:56.080Z,47.75
2018-05-10T05:53:59.409Z,47.64
2018-05-10T05:55:02.759Z,47.58
2018-05-10T05:56:06.261Z,47.56
2018-05-10T05:57:09.565Z,47.50
2018-05-10T05:58:12.895Z,47.47
2018-05-10T05:59:16.209Z,47.44
2018-05-10T06:00:19.540Z,47.53
2018-05-10T06:01:22.907Z,47.71
2018-05-10T06:02:26.238Z,47.93
2018-05-10T06:03:29.546Z,48.13
2018-05-10T06:04:32.870Z,48.34
2018-05-10T06:05:36.191Z,48.48
2018-05-10T06:06:39.807Z,48.60
2018-05-10T06:07:43.132Z,48.63
2018-05-10T06:08:46.503Z,48.64
2018-05-10T06:09:49.861Z,48.65
2018-05-10T06:10:53.170Z,48.66
2018-05-10T06:11:56.547Z,48.69
2018-05-10T06:12:59.903Z,48.64
2018-05-10T06:14:03.213Z,48.54
2018-05-10T06:15:06.576Z,48.44
2018-05-10T06:16:10.049Z,48.33
2018-05-10T06:17:13.388Z,48.29
2018-05-10T06:18:16.759Z,48.26
2018-05-10T06:19:20.319Z,48.31
2018-05-10T06:20:23.667Z,48.38
2018-05-10T06:21:26.994Z,48.44
2018-05-10T06:22:30.375Z,48.55
2018-05-10T06:23:33.706Z,48.68
2018-05-10T06:24:37.042Z,48.81
2018-05-10T06:25:40.351Z,48.95
2018-05-10T06:26:43.670Z,49.05
2018-05-10T06:27:47.015Z,49.14
2018-05-10T06:28:50.339Z,49.22
2018-05-10T06:29:53.670Z,49.27
2018-05-10T06:30:56.994Z,49.34
2018-05-10T06:32:00.335Z,49.44
2018-05-10T06:33:03.740Z,49.46
2018-05-10T06:34:07.094Z,49.49
2018-05-10T06:35:10.426Z,49.50
2018-05-10T06:36:13.810Z,49.51
2018-05-10T06:37:17.145Z,49.48
2018-05-10T06:38:20.483Z,49.46
2018-05-10T06:39:23.812Z,49.42
2018-05-10T06:40:27.153Z,49.39
2018-05-10T06:41:30.559Z,49.35
2018-05-10T06:42:33.910Z,49.27
2018-05-10T06:43:37.298Z,49.17
2018-05-10T06:44:40.614Z,49.02
2018-05-10T06:45:43.935Z,48.87
2018-05-10T06:46:47.336Z,48.82
2018-05-10T06:47:50.623Z,48.80
2018-05-10T06:48:54.012Z,48.81
2018-05-10T06:49:57.321Z,48.79
2018-05-10T06:51:00.690Z,48.75
2018-05-10T06:52:04.046Z,48.68
2018-05-10T06:53:07.348Z,48.60
2018-05-10T06:54:10.677Z,48.56
2018-05-10T06:55:14.001Z,48.45
2018-05-10T06:56:17.326Z,48.27
2018-05-10T06:57:20.656Z,48.08
2018-05-10T06:58:24.091Z,47.96
2018-05-10T06:59:28.172Z,47.82
2018-05-10T07:00:31.614Z,47.66
2018-05-10T07:01:34.992Z,47.51
2018-05-10T07:02:38.319Z,47.32
2018-05-10T07:03:41.649Z,47.09
2018-05-10T07:04:45.007Z,46.94
2018-05-10T07:05:48.350Z,46.83
2018-05-10T07:06:51.673Z,46.77
2018-05-10T07:07:54.987Z,46.75
2018-05-10T07:08:58.322Z,46.71
2018-05-10T07:10:02.042Z,46.67
2018-05-10T07:11:05.287Z,46.64
2018-05-10T07:12:08.631Z,46.62
2018-05-10T07:13:12.120Z,46.44
2018-05-10T07:14:15.450Z,46.32
2018-05-10T07:15:18.785Z,46.25
2018-05-10T07:16:22.139Z,46.20
2018-05-10T07:17:25.458Z,46.15
2018-05-10T07:18:28.817Z,46.15
2018-05-10T07:19:32.128Z,45.99
2018-05-10T07:20:35.494Z,45.71
2018-05-10T07:21:38.814Z,45.41
2018-05-10T07:22:42.160Z,45.18
2018-05-10T07:23:45.480Z,44.85
2018-05-10T07:24:48.810Z,44.59
2018-05-10T07:25:52.154Z,44.30
2018-05-10T07:26:55.467Z,43.93
2018-05-10T07:27:58.809Z,43.61
2018-05-10T07:29:02.154Z,43.32
2018-05-10T07:30:05.491Z,43.10
2018-05-10T07:31:08.850Z,42.97
2018-05-10T07:32:12.180Z,42.85
2018-05-10T07:33:15.542Z,42.68
2018-05-10T07:34:18.887Z,42.50
2018-05-10T07:35:22.264Z,42.36
2018-05-10T07:36:25.609Z,42.32
2018-05-10T07:37:28.939Z,42.10
2018-05-10T07:38:32.310Z,41.62
2018-05-10T07:39:35.641Z,41.19
2018-05-10T07:40:38.991Z,40.92
2018-05-10T07:41:42.347Z,40.77
2018-05-10T07:42:45.742Z,40.68
2018-05-10T07:43:49.121Z,40.46
2018-05-10T07:44:52.467Z,40.03
2018-05-10T07:45:55.805Z,39.69
2018-05-10T07:46:59.191Z,39.36
2018-05-10T07:48:02.521Z,39.18
2018-05-10T07:49:05.901Z,38.98
2018-05-10T07:50:09.214Z,38.72
2018-05-10T07:51:12.543Z,38.54
2018-05-10T07:52:15.905Z,38.34
2018-05-10T07:53:19.212Z,38.14
2018-05-10T07:54:22.535Z,37.94
2018-05-10T07:55:25.848Z,37.75
2018-05-10T07:56:29.166Z,37.65
2018-05-10T07:57:32.517Z,37.59
2018-05-10T07:58:35.842Z,37.52
2018-05-10T07:59:39.163Z,37.48
2018-05-10T08:00:42.488Z,37.37
2018-05-10T08:01:45.798Z,37.45
2018-05-10T08:02:49.155Z,37.56
2018-05-10T08:03:52.466Z,37.73
2018-05-10T08:04:55.811Z,37.93
2018-05-10T08:05:59.139Z,38.22
2018-05-10T08:07:02.474Z,38.46
2018-05-10T08:08:05.807Z,38.69
2018-05-10T08:09:09.148Z,38.94
2018-05-10T08:10:12.592Z,39.21
2018-05-10T08:11:15.840Z,39.45
2018-05-10T08:12:19.184Z,39.69
2018-05-10T08:13:22.540Z,39.94
2018-05-10T08:14:25.867Z,40.12
2018-05-10T08:15:29.228Z,40.30
2018-05-10T08:16:32.549Z,40.49
2018-05-10T08:17:35.879Z,40.67
2018-05-10T08:18:39.265Z,40.77
2018-05-10T08:19:42.600Z,40.60
2018-05-10T08:20:45.940Z,39.82
2018-05-10T08:21:49.246Z,39.62
2018-05-10T08:22:52.584Z,39.46
2018-05-10T08:23:55.969Z,39.34
2018-05-10T08:24:59.292Z,39.17
2018-05-10T08:26:02.650Z,39.07
2018-05-10T08:27:05.971Z,38.93
2018-05-10T08:28:09.295Z,38.36
2018-05-10T08:29:12.671Z,38.40
2018-05-10T08:30:16.227Z,37.37
2018-05-10T08:31:19.506Z,36.92
2018-05-10T08:32:22.851Z,36.34
2018-05-10T08:33:26.225Z,35.84
2018-05-10T08:34:29.627Z,35.63
2018-05-10T08:35:32.960Z,35.66
2018-05-10T08:36:36.316Z,35.74
2018-05-10T08:37:39.614Z,35.80
2018-05-10T08:38:42.928Z,35.56
2018-05-10T08:39:46.271Z,35.32
2018-05-10T08:40:49.602Z,35.00
2018-05-10T08:41:52.963Z,34.99
2018-05-10T08:42:56.314Z,35.16
2018-05-10T08:43:59.768Z,35.34
2018-05-10T08:45:03.152Z,35.57
2018-05-10T08:46:06.504Z,35.72
2018-05-10T08:47:09.850Z,35.72
2018-05-10T08:48:13.166Z,35.73
2018-05-10T08:49:16.471Z,35.60
2018-05-10T08:50:19.815Z,35.40
2018-05-10T08:51:23.130Z,35.28
2018-05-10T08:52:26.442Z,35.15
2018-05-10T08:53:29.748Z,35.11
2018-05-10T08:54:33.071Z,35.03
2018-05-10T08:55:36.439Z,34.97
2018-05-10T08:56:39.999Z,34.97
2018-05-10T08:57:43.326Z,34.97
2018-05-10T08:58:46.637Z,35.05
2018-05-10T08:59:49.982Z,35.19
2018-05-10T09:00:53.299Z,35.39
2018-05-10T09:01:56.619Z,35.62
2018-05-10T09:02:59.944Z,35.89
2018-05-10T09:04:03.359Z,36.08
2018-05-10T09:05:06.680Z,36.31
2018-05-10T09:06:10.193Z,36.56
2018-05-10T09:07:13.495Z,36.79
2018-05-10T09:08:17.053Z,37.01
2018-05-10T09:09:20.375Z,37.20
2018-05-10T09:10:23.923Z,37.40
2018-05-10T09:11:27.290Z,37.43
2018-05-10T09:12:30.595Z,37.35
2018-05-10T09:13:33.932Z,37.23
2018-05-10T09:14:37.404Z,36.97
2018-05-10T09:15:40.712Z,36.76
2018-05-10T09:16:44.052Z,36.63
2018-05-10T09:17:47.374Z,36.47
2018-05-10T09:18:50.783Z,36.24
2018-05-10T09:19:54.084Z,35.75
2018-05-10T09:20:57.451Z,35.31
2018-05-10T09:22:00.982Z,34.91
2018-05-10T09:23:04.291Z,34.61
2018-05-10T09:24:07.589Z,34.40
2018-05-10T09:25:10.893Z,34.26
2018-05-10T09:26:14.195Z,34.20
2018-05-10T09:27:17.584Z,34.12
2018-05-10T09:28:20.906Z,34.07
2018-05-10T09:29:24.217Z,34.00
2018-05-10T09:30:27.518Z,34.04
2018-05-10T09:31:30.863Z,34.11
2018-05-10T09:32:34.209Z,34.21
2018-05-10T09:33:37.517Z,34.29
2018-05-10T09:34:40.838Z,34.31
2018-05-10T09:35:44.165Z,34.33
2018-05-10T09:36:47.468Z,34.35
2018-05-10T09:37:50.828Z,34.43
2018-05-10T09:38:54.136Z,34.43
2018-05-10T09:39:57.440Z,34.30
2018-05-10T09:41:00.775Z,34.14
2018-05-10T09:42:04.088Z,34.14
2018-05-10T09:43:07.429Z,34.26
2018-05-10T09:44:10.756Z,34.35
2018-05-10T09:45:14.088Z,34.35
2018-05-10T09:46:17.516Z,34.25
2018-05-10T09:47:20.746Z,34.20
2018-05-10T09:48:24.139Z,34.30
2018-05-10T09:49:28.359Z,34.43
2018-05-10T09:50:31.667Z,34.44
2018-05-10T09:51:35.006Z,34.39
2018-05-10T09:52:38.355Z,34.29
2018-05-10T09:53:41.726Z,34.25
2018-05-10T09:54:45.035Z,34.19
2018-05-10T09:55:48.358Z,34.07
2018-05-10T09:56:51.732Z,34.07
2018-05-10T09:57:55.032Z,34.03
2018-05-10T09:58:58.399Z,34.03
2018-05-10T10:00:01.702Z,34.08
2018-05-10T10:01:05.037Z,34.18
2018-05-10T10:02:08.357Z,34.21
2018-05-10T10:03:11.660Z,34.33
2018-05-10T10:04:15.013Z,34.45
2018-05-10T10:05:18.306Z,34.63
2018-05-10T10:06:21.632Z,34.85
2018-05-10T10:07:24.982Z,34.96
2018-05-10T10:08:28.324Z,35.05
2018-05-10T10:09:31.671Z,35.16
2018-05-10T10:10:35.260Z,35.36
2018-05-10T10:11:38.567Z,35.46
2018-05-10T10:12:41.871Z,35.45
2018-05-10T10:13:45.196Z,35.34
2018-05-10T10:14:48.532Z,35.39
2018-05-10T10:15:51.835Z,35.48
2018-05-10T10:16:55.156Z,35.59
2018-05-10T10:17:58.578Z,35.77
2018-05-10T10:19:01.937Z,36.02
2018-05-10T10:20:05.318Z,36.22
2018-05-10T10:21:08.618Z,36.36
2018-05-10T10:22:11.952Z,36.48
2018-05-10T10:23:15.264Z,36.60
2018-05-10T10:24:18.591Z,36.70
2018-05-10T10:25:21.935Z,36.78
2018-05-10T10:26:25.258Z,36.87
2018-05-10T10:27:28.660Z,36.96
2018-05-10T10:28:31.930Z,37.11
2018-05-10T10:29:35.254Z,37.16
2018-05-10T10:30:38.693Z,37.13
2018-05-10T10:31:42.008Z,37.19
2018-05-10T10:32:45.321Z,37.32
2018-05-10T10:33:48.661Z,37.46
2018-05-10T10:34:51.970Z,37.52
2018-05-10T10:35:55.319Z,37.64
2018-05-10T10:36:58.606Z,37.80
2018-05-10T10:38:02.075Z,37.94
2018-05-10T10:39:05.605Z,38.07
2018-05-10T10:40:08.978Z,38.23
2018-05-10T10:41:12.262Z,38.34
2018-05-10T10:42:15.578Z,38.49
2018-05-10T10:43:18.911Z,38.68
2018-05-10T10:44:22.219Z,38.86
2018-05-10T10:45:25.581Z,38.98
2018-05-10T10:46:28.922Z,39.17
2018-05-10T10:47:32.256Z,39.34
2018-05-10T10:48:35.553Z,39.53
2018-05-10T10:49:38.888Z,39.68
2018-05-10T10:50:42.196Z,39.84
2018-05-10T10:51:45.564Z,40.01
2018-05-10T10:52:49.470Z,40.19
2018-05-10T10:53:52.815Z,40.41
2018-05-10T10:54:56.083Z,40.64
2018-05-10T10:55:59.446Z,40.85
2018-05-10T10:57:02.822Z,41.06
2018-05-10T10:58:06.147Z,41.25
2018-05-10T10:59:09.491Z,41.41
2018-05-10T11:00:12.828Z,41.62
2018-05-10T11:01:16.194Z,41.76
2018-05-10T11:02:19.548Z,41.92
2018-05-10T11:03:22.892Z,42.08
2018-05-10T11:04:26.202Z,42.24
2018-05-10T11:05:29.610Z,42.42
2018-05-10T11:06:32.947Z,42.59
2018-05-10T11:07:37.582Z,42.69
2018-05-10T11:08:40.930Z,42.83
2018-05-10T11:09:44.275Z,42.95
2018-05-10T11:10:48.527Z,43.12
2018-05-10T11:11:51.849Z,43.25
2018-05-10T11:12:55.266Z,43.37
2018-05-10T11:13:58.589Z,43.47
2018-05-10T11:15:01.907Z,43.56
2018-05-10T11:16:05.230Z,43.68
2018-05-10T11:17:08.567Z,43.77
2018-05-10T11:18:11.924Z,43.82
2018-05-10T11:19:15.245Z,43.90
2018-05-10T11:20:18.588Z,43.98
2018-05-10T11:21:21.913Z,44.04
2018-05-10T11:22:25.239Z,44.09
2018-05-10T11:23:28.587Z,44.11
2018-05-10T11:24:31.921Z,44.16
2018-05-10T11:25:35.250Z,44.25
2018-05-10T11:26:38.570Z,44.31
2018-05-10T11:27:41.919Z,44.39
2018-05-10T11:28:45.272Z,44.45
2018-05-10T11:29:48.633Z,44.51
2018-05-10T11:30:51.984Z,44.59
2018-05-10T11:31:55.403Z,44.66
2018-05-10T11:32:58.841Z,44.70
2018-05-10T11:34:02.337Z,44.78
2018-05-10T11:35:05.979Z,44.86
2018-05-10T11:36:09.372Z,44.89
2018-05-10T11:37:12.665Z,44.94
2018-05-10T11:38:16.055Z,44.97
2018-05-10T11:39:19.427Z,44.97
2018-05-10T11:40:22.791Z,45.00
2018-05-10T11:41:26.135Z,45.04
2018-05-10T11:42:29.458Z,45.09
2018-05-10T11:43:32.787Z,45.19
2018-05-10T11:44:36.262Z,45.20
2018-05-10T11:45:39.492Z,45.25
2018-05-10T11:46:42.839Z,45.34
2018-05-10T11:47:46.162Z,45.33
2018-05-10T11:48:49.477Z,45.34
2018-05-10T11:49:52.839Z,45.37
2018-05-10T11:50:56.192Z,45.32
2018-05-10T11:51:59.542Z,45.32
2018-05-10T11:53:02.853Z,45.32
2018-05-10T11:54:06.195Z,45.32
2018-05-10T11:55:09.720Z,45.33
2018-05-10T11:56:13.026Z,45.35
2018-05-10T11:57:16.371Z,45.34
2018-05-10T11:58:19.708Z,45.35
2018-05-10T11:59:23.084Z,45.38
2018-05-10T12:00:26.464Z,45.36
2018-05-10T12:01:29.856Z,45.37
2018-05-10T12:02:33.257Z,45.48
2018-05-10T12:03:36.569Z,45.48
2018-05-10T12:04:39.914Z,45.47
2018-05-10T12:05:43.322Z,45.49
2018-05-10T12:06:46.655Z,45.58
2018-05-10T12:07:50.291Z,45.59
2018-05-10T12:08:53.632Z,45.68
2018-05-10T12:09:57.294Z,45.79
2018-05-10T12:11:00.791Z,45.85
2018-05-10T12:12:04.168Z,45.96
2018-05-10T12:13:07.496Z,46.18
2018-05-10T12:14:10.848Z,46.26
2018-05-10T12:15:14.199Z,46.34
2018-05-10T12:16:17.610Z,46.34
2018-05-10T12:17:20.963Z,46.31
2018-05-10T12:18:24.299Z,46.27
2018-05-10T12:19:27.806Z,46.20
2018-05-10T12:20:31.258Z,46.17
2018-05-10T12:21:34.550Z,46.13
2018-05-10T12:22:37.891Z,46.09
2018-05-10T12:23:41.211Z,46.08
2018-05-10T12:24:44.548Z,46.04
2018-05-10T12:25:47.883Z,46.04
2018-05-10T12:26:51.258Z,46.04
2018-05-10T12:27:54.593Z,46.07
2018-05-10T12:28:57.932Z,46.06
2018-05-10T12:30:01.442Z,46.02
2018-05-10T12:31:05.023Z,46.03
2018-05-10T12:32:08.353Z,46.08
2018-05-10T12:33:11.686Z,46.09
2018-05-10T12:34:15.014Z,46.08
2018-05-10T12:35:18.336Z,46.10
2018-05-10T12:36:21.674Z,46.13
2018-05-10T12:37:25.101Z,46.13
2018-05-10T12:38:28.451Z,46.14
2018-05-10T12:39:31.885Z,46.09
2018-05-10T12:40:35.343Z,46.09
2018-05-10T12:41:38.670Z,46.09
2018-05-10T12:42:42.101Z,46.07
2018-05-10T12:43:45.424Z,46.07
2018-05-10T12:44:48.743Z,46.02
2018-05-10T12:45:52.072Z,45.91
2018-05-10T12:46:55.397Z,45.92
2018-05-10T12:47:59.097Z,45.93
2018-05-10T12:49:02.441Z,45.99
2018-05-10T12:50:05.789Z,46.01
2018-05-10T12:51:09.124Z,46.03
2018-05-10T12:52:12.470Z,46.06
2018-05-10T12:53:15.906Z,46.13
2018-05-10T12:54:19.281Z,46.13
2018-05-10T12:55:22.617Z,46.12
2018-05-10T12:56:26.159Z,46.09
2018-05-10T12:57:29.332Z,46.03
2018-05-10T12:58:32.708Z,45.93
2018-05-10T12:59:36.071Z,45.96
2018-05-10T13:00:39.394Z,46.03
2018-05-10T13:01:42.830Z,46.15
2018-05-10T13:02:47.461Z,46.08
2018-05-10T13:03:51.368Z,45.97
2018-05-10T13:04:54.743Z,45.92
2018-05-10T13:05:58.090Z,45.90
2018-05-10T13:07:01.501Z,45.95
2018-05-10T13:08:04.813Z,46.02
2018-05-10T13:09:09.080Z,46.04
2018-05-10T13:10:12.455Z,45.96
2018-05-10T13:11:16.019Z,45.85
2018-05-10T13:12:19.366Z,45.75
2018-05-10T13:13:22.777Z,45.70
2018-05-10T13:14:26.059Z,45.67
2018-05-10T13:15:29.433Z,45.48
2018-05-10T13:16:32.838Z,45.45
2018-05-10T13:17:36.271Z,45.44
2018-05-10T13:18:39.622Z,45.43
2018-05-10T13:19:42.994Z,45.51
2018-05-10T13:20:46.363Z,45.69
2018-05-10T13:21:49.777Z,45.57
2018-05-10T13:22:53.048Z,45.63
2018-05-10T13:23:56.383Z,45.62
2018-05-10T13:24:59.852Z,45.73
2018-05-10T13:26:03.191Z,45.75
2018-05-10T13:27:06.520Z,45.64
2018-05-10T13:28:09.850Z,45.64
2018-05-10T13:29:13.191Z,45.64
2018-05-10T13:30:16.544Z,45.63
2018-05-10T13:31:19.861Z,45.60
2018-05-10T13:32:23.244Z,45.63
2018-05-10T13:33:26.587Z,45.69
2018-05-10T13:34:29.938Z,45.73
2018-05-10T13:35:33.384Z,45.75
2018-05-10T13:36:36.698Z,45.81
2018-05-10T13:37:40.040Z,45.92
2018-05-10T13:38:43.435Z,46.01